首页
METAR-TAF:

METAR-TAF

机场 :

沙阿贾拉勒国际机场

达卡, 孟加拉国

纬度: 23-50-34N, 经度: 090-24-02E, 海拔: 8米

当前天气观测

该预报发布于34分钟前的00:30 UTC
风速10节,风向
温度 29°C
湿度 84%
气压 1002 hPa
能見度: 3500
散云层高于1000英尺
多云层高于10000英尺
霾,

METAR: VGHS 170030Z 18010KT 3500 HZ SCT010 BKN100 29/26 Q1002 NOSIG

时间: 07:04 (01:04 UTC)

预报

该预报发布于2小时和4分钟前的23:00 UTC
预报有效从17日的 00点(UTC)到 18日的 06点(UTC)
风速10节,风向
能見度: 3200
散云层高于1200英尺
多云层高于10000英尺
短暂存在
从 17日的 02点(UTC)到 17日的 09点(UTC)
风速20节,风向西转西北,有时为30节阵风
能見度: 2000
多云层高于800英尺
少量云层高于2500英尺, 积雨云.
阴天层高于9000英尺
成为
从 17日的 09点(UTC)到 17日的 11点(UTC)
风速10节,风向南转南东
能見度: 4000
少量云层高于1500英尺
多云层高于10000英尺
霾,

TAF: VGHS 162300Z 1700/1806 18010KT 3200 HZ SCT012 BKN100 TEMPO 1702/1709 29020G30KT 2000 RA/TSRA BKN008 FEW025CB OVC090 BECMG 1709/1711 15010KT 4000 HZ FEW015 BKN100

超过4000个机场的气象观测和天气预报(METAR&TAF报告)。

可查询的气象台以黄色和红色小点在地图上表示。

将鼠标移到小点上方,可查看气象台名称。

然后点击查看天气观测和预报。

如需切换地图:点击带黑十字的绿色按钮放大地图;点击带横线的绿色按钮缩小地图;或者点击绿色箭头查看邻近地区的地图。


METAR-TAF: